Occitan Barsac — C6AR2 — position and weather

sailwx.info

Track history (hours):
 
Tides and Currents Weather Stations Pressure Air Temp Water Temp Dewpoint Dewpoint Depression Visibility Wind Speed Wind Dir Waves Ship Positions

Occitan Barsac

Last reported at 2018-Feb-14 12:34 UTC. Time now 2018-Feb-22 13:03 UTC.
Position N 23°05' E 117°42'.
Warning: this ship's position is 8 days out of date.

Length 165 m; draft 7.1 m.

Type: Cargo ship. MMSI: 311000126.

Date/timePositionNaut miles runAvg speedWind from/ knotsBaromVisibWave heightAir tempDewpointWater temp
2018-Feb-14 12:34N 23°05' E 117°42'110.7
2018-Feb-14 12:30N 23°05' E 117°42'611.1
2018-Feb-14 12:00N 23°08' E 117°48'611.0
2018-Feb-14 11:29N 23°11' E 117°53'611.0
2018-Feb-14 10:56N 23°14' E 117°59'511.8
2018-Feb-14 10:29N 23°16' E 118°04'611.9
2018-Feb-14 10:01N 23°19' E 118°09'612.2
2018-Feb-14 09:30N 23°22' E 118°15'612.3
2018-Feb-14 09:01N 23°25' E 118°21'612.6
2018-Feb-14 08:30N 23°28' E 118°27'612.9
2018-Feb-14 08:00N 23°32' E 118°32'613.1
2018-Feb-14 07:30N 23°37' E 118°37'612.9
2018-Feb-14 07:00N 23°42' E 118°41'612.0
2018-Feb-14 06:30N 23°46' E 118°46'612.3
2018-Feb-14 06:00N 23°50' E 118°51'612.7
2018-Feb-14 05:31N 23°55' E 118°56'713.0
2018-Feb-14 05:00N 23°59' E 119°01'612.8
2018-Feb-14 04:30N 24°04' E 119°06'612.6
2018-Feb-14 04:00N 24°09' E 119°10'612.3
2018-Feb-14 03:29N 24°14' E 119°14'612.1
2018-Feb-14 03:00N 24°19' E 119°18'611.9
2018-Feb-14 02:30N 24°24' E 119°22'611.0
2018-Feb-14 01:58N 24°28' E 119°26'  
Track history (hours):
 
Tides and Currents Weather Stations Pressure Air Temp Water Temp Dewpoint Dewpoint Depression Visibility Wind Speed Wind Dir Waves Ship Positions

Occitan Barsac

Last reported at 2018-Feb-14 12:34 UTC. Time now 2018-Feb-22 13:03 UTC.
Position N 23°05' E 117°42'.
Warning: this ship's position is 8 days out of date.

Length 165 m; draft 7.1 m.

Type: Cargo ship. MMSI: 311000126.

Date/timePositionNaut miles runAvg speedWind from/ knotsBaromVisibWave heightAir tempDewpointWater temp
2018-Feb-14 12:34N 23°05' E 117°42'110.7
2018-Feb-14 12:30N 23°05' E 117°42'611.1
2018-Feb-14 12:00N 23°08' E 117°48'611.0
2018-Feb-14 11:29N 23°11' E 117°53'611.0
2018-Feb-14 10:56N 23°14' E 117°59'511.8
2018-Feb-14 10:29N 23°16' E 118°04'611.9
2018-Feb-14 10:01N 23°19' E 118°09'612.2
2018-Feb-14 09:30N 23°22' E 118°15'612.3
2018-Feb-14 09:01N 23°25' E 118°21'612.6
2018-Feb-14 08:30N 23°28' E 118°27'612.9
2018-Feb-14 08:00N 23°32' E 118°32'613.1
2018-Feb-14 07:30N 23°37' E 118°37'612.9
2018-Feb-14 07:00N 23°42' E 118°41'612.0
2018-Feb-14 06:30N 23°46' E 118°46'612.3
2018-Feb-14 06:00N 23°50' E 118°51'612.7
2018-Feb-14 05:31N 23°55' E 118°56'713.0
2018-Feb-14 05:00N 23°59' E 119°01'612.8
2018-Feb-14 04:30N 24°04' E 119°06'612.6
2018-Feb-14 04:00N 24°09' E 119°10'612.3
2018-Feb-14 03:29N 24°14' E 119°14'612.1
2018-Feb-14 03:00N 24°19' E 119°18'611.9
2018-Feb-14 02:30N 24°24' E 119°22'611.0
2018-Feb-14 01:58N 24°28' E 119°26'  

Dump ship's entire track history